sensor_id;sensor_type;location;lat;lon;timestamp;temperature;humidity
17807;DHT22;9027;48.938;9.182;2022-10-31T00:00:32;12.80;99.90
17807;DHT22;9027;48.938;9.182;2022-10-31T00:02:04;12.80;99.90
17807;DHT22;9027;48.938;9.182;2022-10-31T00:03:37;12.70;99.90
17807;DHT22;9027;48.938;9.182;2022-10-31T00:05:08;12.70;99.90
17807;DHT22;9027;48.938;9.182;2022-10-31T00:06:42;12.70;99.90
17807;DHT22;9027;48.938;9.182;2022-10-31T00:08:14;12.70;99.90
17807;DHT22;9027;48.938;9.182;2022-10-31T00:09:47;12.70;99.90
17807;DHT22;9027;48.938;9.182;2022-10-31T00:11:19;12.70;99.90
17807;DHT22;9027;48.938;9.182;2022-10-31T00:12:51;12.70;99.90
17807;DHT22;9027;48.938;9.182;2022-10-31T00:14:23;12.60;99.90
17807;DHT22;9027;48.938;9.182;2022-10-31T00:15:55;12.70;99.90
17807;DHT22;9027;48.938;9.182;2022-10-31T00:17:26;12.70;99.90
17807;DHT22;9027;48.938;9.182;2022-10-31T00:18:59;12.70;99.90
17807;DHT22;9027;48.938;9.182;2022-10-31T00:20:32;12.70;99.90
17807;DHT22;9027;48.938;9.182;2022-10-31T00:22:05;12.70;99.90
17807;DHT22;9027;48.938;9.182;2022-10-31T00:23:37;12.70;99.90
17807;DHT22;9027;48.938;9.182;2022-10-31T00:25:08;12.70;99.90
17807;DHT22;9027;48.938;9.182;2022-10-31T00:26:40;12.70;99.90
17807;DHT22;9027;48.938;9.182;2022-10-31T00:28:12;12.70;99.90
17807;DHT22;9027;48.938;9.182;2022-10-31T00:29:43;12.70;99.90
17807;DHT22;9027;48.938;9.182;2022-10-31T00:31:15;12.70;99.90
17807;DHT22;9027;48.938;9.182;2022-10-31T00:32:46;12.60;99.90
17807;DHT22;9027;48.938;9.182;2022-10-31T00:34:17;12.70;99.90
17807;DHT22;9027;48.938;9.182;2022-10-31T00:35:50;12.70;99.90
17807;DHT22;9027;48.938;9.182;2022-10-31T00:37:22;12.70;99.90
17807;DHT22;9027;48.938;9.182;2022-10-31T00:38:54;12.70;99.90
17807;DHT22;9027;48.938;9.182;2022-10-31T00:40:26;12.70;99.90
17807;DHT22;9027;48.938;9.182;2022-10-31T00:41:58;12.70;99.90
17807;DHT22;9027;48.938;9.182;2022-10-31T00:43:29;12.70;99.90
17807;DHT22;9027;48.938;9.182;2022-10-31T00:45:02;12.70;99.90
17807;DHT22;9027;48.938;9.182;2022-10-31T00:46:33;12.70;99.90
17807;DHT22;9027;48.938;9.182;2022-10-31T00:48:05;12.70;99.90
17807;DHT22;9027;48.938;9.182;2022-10-31T00:49:37;12.60;99.90
17807;DHT22;9027;48.938;9.182;2022-10-31T00:51:09;12.60;99.90
17807;DHT22;9027;48.938;9.182;2022-10-31T00:52:41;12.50;99.90
17807;DHT22;9027;48.938;9.182;2022-10-31T00:54:13;12.50;99.90
17807;DHT22;9027;48.938;9.182;2022-10-31T00:55:45;12.30;99.90
17807;DHT22;9027;48.938;9.182;2022-10-31T00:57:17;12.30;99.90
17807;DHT22;9027;48.938;9.182;2022-10-31T00:58:49;12.40;99.90
17807;DHT22;9027;48.938;9.182;2022-10-31T01:00:21;12.40;99.90
17807;DHT22;9027;48.938;9.182;2022-10-31T01:01:53;12.30;99.90
17807;DHT22;9027;48.938;9.182;2022-10-31T01:03:28;12.40;99.90
17807;DHT22;9027;48.938;9.182;2022-10-31T01:05:00;12.40;99.90
17807;DHT22;9027;48.938;9.182;2022-10-31T01:06:31;12.50;99.90
17807;DHT22;9027;48.938;9.182;2022-10-31T01:08:04;12.50;99.90
17807;DHT22;9027;48.938;9.182;2022-10-31T01:09:36;12.50;99.90
17807;DHT22;9027;48.938;9.182;2022-10-31T01:11:11;12.50;99.90
17807;DHT22;9027;48.938;9.182;2022-10-31T01:12:46;12.50;99.90
17807;DHT22;9027;48.938;9.182;2022-10-31T01:14:18;12.40;99.90
17807;DHT22;9027;48.938;9.182;2022-10-31T01:15:53;12.40;99.90
17807;DHT22;9027;48.938;9.182;2022-10-31T01:17:24;12.40;99.90
17807;DHT22;9027;48.938;9.182;2022-10-31T01:18:56;12.40;99.90
17807;DHT22;9027;48.938;9.182;2022-10-31T01:20:31;12.40;99.90
17807;DHT22;9027;48.938;9.182;2022-10-31T01:22:05;12.40;99.90
17807;DHT22;9027;48.938;9.182;2022-10-31T01:23:39;12.40;99.90
17807;DHT22;9027;48.938;9.182;2022-10-31T01:25:10;12.30;99.90
17807;DHT22;9027;48.938;9.182;2022-10-31T01:26:42;12.30;99.90
17807;DHT22;9027;48.938;9.182;2022-10-31T01:28:14;12.20;99.90
17807;DHT22;9027;48.938;9.182;2022-10-31T01:29:45;12.20;99.90
17807;DHT22;9027;48.938;9.182;2022-10-31T01:31:18;12.20;99.90
17807;DHT22;9027;48.938;9.182;2022-10-31T01:32:50;12.20;99.90
17807;DHT22;9027;48.938;9.182;2022-10-31T01:34:22;12.30;99.90
17807;DHT22;9027;48.938;9.182;2022-10-31T01:35:54;12.20;99.90
17807;DHT22;9027;48.938;9.182;2022-10-31T01:37:25;12.20;99.90
17807;DHT22;9027;48.938;9.182;2022-10-31T01:38:59;12.20;99.90
17807;DHT22;9027;48.938;9.182;2022-10-31T01:40:31;12.20;99.90
17807;DHT22;9027;48.938;9.182;2022-10-31T01:42:02;12.20;99.90
17807;DHT22;9027;48.938;9.182;2022-10-31T01:43:50;12.20;99.90
17807;DHT22;9027;48.938;9.182;2022-10-31T01:45:23;12.20;99.90
17807;DHT22;9027;48.938;9.182;2022-10-31T01:46:57;12.20;99.90
17807;DHT22;9027;48.938;9.182;2022-10-31T01:48:30;12.20;99.90
17807;DHT22;9027;48.938;9.182;2022-10-31T01:50:06;12.10;99.90
17807;DHT22;9027;48.938;9.182;2022-10-31T01:51:45;12.00;99.90
17807;DHT22;9027;48.938;9.182;2022-10-31T01:53:19;11.90;99.90
17807;DHT22;9027;48.938;9.182;2022-10-31T01:54:57;11.90;99.90
17807;DHT22;9027;48.938;9.182;2022-10-31T01:56:29;12.00;99.90
17807;DHT22;9027;48.938;9.182;2022-10-31T01:58:05;12.00;99.90
17807;DHT22;9027;48.938;9.182;2022-10-31T01:59:41;12.00;99.90
17807;DHT22;9027;48.938;9.182;2022-10-31T02:01:16;12.00;99.90
17807;DHT22;9027;48.938;9.182;2022-10-31T02:02:49;12.00;99.90
17807;DHT22;9027;48.938;9.182;2022-10-31T02:04:22;12.10;99.90
17807;DHT22;9027;48.938;9.182;2022-10-31T02:05:55;12.00;99.90
17807;DHT22;9027;48.938;9.182;2022-10-31T02:07:33;12.00;99.90
17807;DHT22;9027;48.938;9.182;2022-10-31T02:09:07;12.00;99.90
17807;DHT22;9027;48.938;9.182;2022-10-31T02:10:42;12.00;99.90
17807;DHT22;9027;48.938;9.182;2022-10-31T02:12:15;12.00;99.90
17807;DHT22;9027;48.938;9.182;2022-10-31T02:13:48;12.00;99.90
17807;DHT22;9027;48.938;9.182;2022-10-31T02:15:20;12.00;99.90
17807;DHT22;9027;48.938;9.182;2022-10-31T02:16:53;12.00;99.90
17807;DHT22;9027;48.938;9.182;2022-10-31T02:18:28;12.00;99.90
17807;DHT22;9027;48.938;9.182;2022-10-31T02:20:09;11.90;99.90
17807;DHT22;9027;48.938;9.182;2022-10-31T02:21:47;11.90;99.90
17807;DHT22;9027;48.938;9.182;2022-10-31T02:23:45;11.90;99.90
17807;DHT22;9027;48.938;9.182;2022-10-31T02:25:38;11.90;99.90
17807;DHT22;9027;48.938;9.182;2022-10-31T02:27:45;11.90;99.90
17807;DHT22;9027;48.938;9.182;2022-10-31T02:31:35;11.90;99.90
17807;DHT22;9027;48.938;9.182;2022-10-31T02:33:21;11.90;99.90
17807;DHT22;9027;48.938;9.182;2022-10-31T02:34:58;11.80;99.90
17807;DHT22;9027;48.938;9.182;2022-10-31T02:36:40;11.80;99.90
17807;DHT22;9027;48.938;9.182;2022-10-31T02:38:29;11.80;99.90
17807;DHT22;9027;48.938;9.182;2022-10-31T02:40:13;11.80;99.90
17807;DHT22;9027;48.938;9.182;2022-10-31T02:42:12;11.90;99.90
17807;DHT22;9027;48.938;9.182;2022-10-31T02:43:56;11.90;99.90
17807;DHT22;9027;48.938;9.182;2022-10-31T02:45:38;11.80;99.90
17807;DHT22;9027;48.938;9.182;2022-10-31T02:47:15;11.80;99.90
17807;DHT22;9027;48.938;9.182;2022-10-31T02:48:48;11.80;99.90
17807;DHT22;9027;48.938;9.182;2022-10-31T02:50:24;11.80;99.90
17807;DHT22;9027;48.938;9.182;2022-10-31T02:51:58;11.80;99.90
17807;DHT22;9027;48.938;9.182;2022-10-31T02:53:32;11.70;99.90
17807;DHT22;9027;48.938;9.182;2022-10-31T02:55:12;11.70;99.90
17807;DHT22;9027;48.938;9.182;2022-10-31T02:56:45;11.70;99.90
17807;DHT22;9027;48.938;9.182;2022-10-31T02:58:20;11.70;99.90
17807;DHT22;9027;48.938;9.182;2022-10-31T02:59:54;11.70;99.90
17807;DHT22;9027;48.938;9.182;2022-10-31T03:01:45;11.70;99.90
17807;DHT22;9027;48.938;9.182;2022-10-31T03:03:23;11.60;99.90
17807;DHT22;9027;48.938;9.182;2022-10-31T03:05:13;11.70;99.90
17807;DHT22;9027;48.938;9.182;2022-10-31T03:06:53;11.70;99.90
17807;DHT22;9027;48.938;9.182;2022-10-31T03:08:33;11.70;99.90
17807;DHT22;9027;48.938;9.182;2022-10-31T03:10:14;11.60;99.90
17807;DHT22;9027;48.938;9.182;2022-10-31T03:11:55;11.60;99.90
17807;DHT22;9027;48.938;9.182;2022-10-31T03:13:33;11.60;99.90
17807;DHT22;9027;48.938;9.182;2022-10-31T03:15:13;11.60;99.90
17807;DHT22;9027;48.938;9.182;2022-10-31T03:16:47;11.60;99.90
17807;DHT22;9027;48.938;9.182;2022-10-31T03:18:25;11.50;99.90
17807;DHT22;9027;48.938;9.182;2022-10-31T03:20:00;11.50;99.90
17807;DHT22;9027;48.938;9.182;2022-10-31T03:21:37;11.50;99.90
17807;DHT22;9027;48.938;9.182;2022-10-31T03:23:14;11.40;99.90
17807;DHT22;9027;48.938;9.182;2022-10-31T03:24:52;11.40;99.90
17807;DHT22;9027;48.938;9.182;2022-10-31T03:26:26;11.50;99.90
17807;DHT22;9027;48.938;9.182;2022-10-31T03:28:00;11.40;99.90
17807;DHT22;9027;48.938;9.182;2022-10-31T03:29:35;11.50;99.90
17807;DHT22;9027;48.938;9.182;2022-10-31T03:31:09;11.40;99.90
17807;DHT22;9027;48.938;9.182;2022-10-31T03:32:46;11.40;99.90
17807;DHT22;9027;48.938;9.182;2022-10-31T03:34:22;11.40;99.90
17807;DHT22;9027;48.938;9.182;2022-10-31T03:35:55;11.40;99.90
17807;DHT22;9027;48.938;9.182;2022-10-31T03:37:30;11.40;99.90
17807;DHT22;9027;48.938;9.182;2022-10-31T03:39:06;11.30;99.90
17807;DHT22;9027;48.938;9.182;2022-10-31T03:40:43;11.00;99.90
17807;DHT22;9027;48.938;9.182;2022-10-31T03:42:20;10.90;99.90
17807;DHT22;9027;48.938;9.182;2022-10-31T03:43:57;10.90;99.90
17807;DHT22;9027;48.938;9.182;2022-10-31T03:45:31;10.90;99.90
17807;DHT22;9027;48.938;9.182;2022-10-31T03:47:04;11.00;99.90
17807;DHT22;9027;48.938;9.182;2022-10-31T03:48:36;11.10;99.90
17807;DHT22;9027;48.938;9.182;2022-10-31T03:50:11;11.20;99.90
17807;DHT22;9027;48.938;9.182;2022-10-31T03:51:47;11.20;99.90
17807;DHT22;9027;48.938;9.182;2022-10-31T03:53:25;11.20;99.90
17807;DHT22;9027;48.938;9.182;2022-10-31T03:55:02;11.30;99.90
17807;DHT22;9027;48.938;9.182;2022-10-31T03:56:39;11.30;99.90
17807;DHT22;9027;48.938;9.182;2022-10-31T03:58:20;11.30;99.90
17807;DHT22;9027;48.938;9.182;2022-10-31T03:59:56;11.30;99.90
17807;DHT22;9027;48.938;9.182;2022-10-31T04:01:31;11.30;99.90
17807;DHT22;9027;48.938;9.182;2022-10-31T04:03:09;11.30;99.90
17807;DHT22;9027;48.938;9.182;2022-10-31T04:04:43;11.20;99.90
17807;DHT22;9027;48.938;9.182;2022-10-31T04:06:18;11.00;99.90
17807;DHT22;9027;48.938;9.182;2022-10-31T04:07:55;11.00;99.90
17807;DHT22;9027;48.938;9.182;2022-10-31T04:09:31;11.00;99.90
17807;DHT22;9027;48.938;9.182;2022-10-31T04:11:04;11.10;99.90
17807;DHT22;9027;48.938;9.182;2022-10-31T04:12:46;11.10;99.90
17807;DHT22;9027;48.938;9.182;2022-10-31T04:14:31;11.10;99.90
17807;DHT22;9027;48.938;9.182;2022-10-31T04:16:05;11.20;99.90
17807;DHT22;9027;48.938;9.182;2022-10-31T04:17:40;11.20;99.90
17807;DHT22;9027;48.938;9.182;2022-10-31T04:19:14;11.20;99.90
17807;DHT22;9027;48.938;9.182;2022-10-31T04:20:47;11.10;99.90
17807;DHT22;9027;48.938;9.182;2022-10-31T04:22:21;11.20;99.90
17807;DHT22;9027;48.938;9.182;2022-10-31T04:23:53;11.20;99.90
17807;DHT22;9027;48.938;9.182;2022-10-31T04:25:29;11.20;99.90
17807;DHT22;9027;48.938;9.182;2022-10-31T04:27:03;11.20;99.90
17807;DHT22;9027;48.938;9.182;2022-10-31T04:28:34;11.20;99.90
17807;DHT22;9027;48.938;9.182;2022-10-31T04:30:07;11.20;99.90
17807;DHT22;9027;48.938;9.182;2022-10-31T04:31:43;11.20;99.90
17807;DHT22;9027;48.938;9.182;2022-10-31T04:33:15;11.20;99.90
17807;DHT22;9027;48.938;9.182;2022-10-31T04:34:47;11.20;99.90
17807;DHT22;9027;48.938;9.182;2022-10-31T04:36:19;11.20;99.90
17807;DHT22;9027;48.938;9.182;2022-10-31T04:37:53;11.10;99.90
17807;DHT22;9027;48.938;9.182;2022-10-31T04:39:24;11.10;99.90
17807;DHT22;9027;48.938;9.182;2022-10-31T04:41:19;11.10;99.90
17807;DHT22;9027;48.938;9.182;2022-10-31T04:42:57;11.10;99.90
17807;DHT22;9027;48.938;9.182;2022-10-31T04:44:28;11.10;99.90
17807;DHT22;9027;48.938;9.182;2022-10-31T04:46:04;11.10;99.90
17807;DHT22;9027;48.938;9.182;2022-10-31T04:47:36;11.00;99.90
17807;DHT22;9027;48.938;9.182;2022-10-31T04:49:08;11.00;99.90
17807;DHT22;9027;48.938;9.182;2022-10-31T04:50:40;11.00;99.90
17807;DHT22;9027;48.938;9.182;2022-10-31T04:52:13;11.00;99.90
17807;DHT22;9027;48.938;9.182;2022-10-31T04:53:46;11.00;99.90
17807;DHT22;9027;48.938;9.182;2022-10-31T04:55:44;10.90;99.90
17807;DHT22;9027;48.938;9.182;2022-10-31T04:57:23;10.90;99.90
17807;DHT22;9027;48.938;9.182;2022-10-31T04:58:55;10.90;99.90
17807;DHT22;9027;48.938;9.182;2022-10-31T05:00:28;10.90;99.90
17807;DHT22;9027;48.938;9.182;2022-10-31T05:01:59;10.90;99.90
17807;DHT22;9027;48.938;9.182;2022-10-31T05:03:51;10.90;99.90
17807;DHT22;9027;48.938;9.182;2022-10-31T05:05:25;10.90;99.90
17807;DHT22;9027;48.938;9.182;2022-10-31T05:06:57;10.90;99.90
17807;DHT22;9027;48.938;9.182;2022-10-31T05:08:29;10.90;99.90
17807;DHT22;9027;48.938;9.182;2022-10-31T05:10:02;10.80;99.90
17807;DHT22;9027;48.938;9.182;2022-10-31T05:11:35;10.80;99.90
17807;DHT22;9027;48.938;9.182;2022-10-31T05:13:21;10.80;99.90
17807;DHT22;9027;48.938;9.182;2022-10-31T05:15:12;10.80;99.90
17807;DHT22;9027;48.938;9.182;2022-10-31T05:17:02;10.80;99.90
17807;DHT22;9027;48.938;9.182;2022-10-31T05:18:53;10.70;99.90
17807;DHT22;9027;48.938;9.182;2022-10-31T05:20:37;10.60;99.90
17807;DHT22;9027;48.938;9.182;2022-10-31T05:22:31;10.60;99.90
17807;DHT22;9027;48.938;9.182;2022-10-31T05:24:04;10.60;99.90
17807;DHT22;9027;48.938;9.182;2022-10-31T05:25:40;10.60;99.90
17807;DHT22;9027;48.938;9.182;2022-10-31T05:27:12;10.60;99.90
17807;DHT22;9027;48.938;9.182;2022-10-31T05:28:44;10.60;99.90
17807;DHT22;9027;48.938;9.182;2022-10-31T05:30:18;10.50;99.90
17807;DHT22;9027;48.938;9.182;2022-10-31T05:31:51;10.50;99.90
17807;DHT22;9027;48.938;9.182;2022-10-31T05:33:43;10.50;99.90
17807;DHT22;9027;48.938;9.182;2022-10-31T05:35:34;10.50;99.90
17807;DHT22;9027;48.938;9.182;2022-10-31T05:37:28;10.50;99.90
17807;DHT22;9027;48.938;9.182;2022-10-31T05:39:01;10.40;99.90
17807;DHT22;9027;48.938;9.182;2022-10-31T05:40:40;10.50;99.90
17807;DHT22;9027;48.938;9.182;2022-10-31T05:42:12;10.50;99.90
17807;DHT22;9027;48.938;9.182;2022-10-31T05:43:45;10.50;99.90
17807;DHT22;9027;48.938;9.182;2022-10-31T05:45:18;10.50;99.90
17807;DHT22;9027;48.938;9.182;2022-10-31T05:46:56;10.60;99.90
17807;DHT22;9027;48.938;9.182;2022-10-31T05:48:47;10.60;99.90
17807;DHT22;9027;48.938;9.182;2022-10-31T05:50:38;10.50;99.90
17807;DHT22;9027;48.938;9.182;2022-10-31T05:52:13;10.40;99.90
17807;DHT22;9027;48.938;9.182;2022-10-31T05:53:53;10.40;99.90
17807;DHT22;9027;48.938;9.182;2022-10-31T05:55:27;10.40;99.90
17807;DHT22;9027;48.938;9.182;2022-10-31T05:57:09;10.40;99.90
17807;DHT22;9027;48.938;9.182;2022-10-31T05:58:41;10.40;99.90
17807;DHT22;9027;48.938;9.182;2022-10-31T06:00:13;10.40;99.90
17807;DHT22;9027;48.938;9.182;2022-10-31T06:01:54;10.50;99.90
17807;DHT22;9027;48.938;9.182;2022-10-31T06:03:37;10.50;99.90
17807;DHT22;9027;48.938;9.182;2022-10-31T06:05:12;10.50;99.90
17807;DHT22;9027;48.938;9.182;2022-10-31T06:06:43;10.50;99.90
17807;DHT22;9027;48.938;9.182;2022-10-31T06:08:15;10.50;99.90
17807;DHT22;9027;48.938;9.182;2022-10-31T06:09:48;10.60;99.90
17807;DHT22;9027;48.938;9.182;2022-10-31T06:11:20;10.50;99.90
17807;DHT22;9027;48.938;9.182;2022-10-31T06:13:08;10.50;99.90
17807;DHT22;9027;48.938;9.182;2022-10-31T06:14:48;10.50;99.90
17807;DHT22;9027;48.938;9.182;2022-10-31T06:16:19;10.50;99.90
17807;DHT22;9027;48.938;9.182;2022-10-31T06:17:59;10.50;99.90
17807;DHT22;9027;48.938;9.182;2022-10-31T06:19:31;10.50;99.90
17807;DHT22;9027;48.938;9.182;2022-10-31T06:21:04;10.60;99.90
17807;DHT22;9027;48.938;9.182;2022-10-31T06:22:36;10.60;99.90
17807;DHT22;9027;48.938;9.182;2022-10-31T06:24:07;10.60;99.90
17807;DHT22;9027;48.938;9.182;2022-10-31T06:25:57;10.60;99.90
17807;DHT22;9027;48.938;9.182;2022-10-31T06:27:29;10.60;99.90
17807;DHT22;9027;48.938;9.182;2022-10-31T06:29:04;10.60;99.90
17807;DHT22;9027;48.938;9.182;2022-10-31T06:30:57;10.60;99.90
17807;DHT22;9027;48.938;9.182;2022-10-31T06:32:29;10.70;99.90
17807;DHT22;9027;48.938;9.182;2022-10-31T06:34:00;10.80;99.90
17807;DHT22;9027;48.938;9.182;2022-10-31T06:35:33;10.80;99.90
17807;DHT22;9027;48.938;9.182;2022-10-31T06:37:05;10.80;99.90
17807;DHT22;9027;48.938;9.182;2022-10-31T06:38:38;10.80;99.90
17807;DHT22;9027;48.938;9.182;2022-10-31T06:40:13;10.80;99.90
17807;DHT22;9027;48.938;9.182;2022-10-31T06:42:05;10.90;99.90
17807;DHT22;9027;48.938;9.182;2022-10-31T06:43:39;10.90;99.90
17807;DHT22;9027;48.938;9.182;2022-10-31T06:45:30;10.90;99.90
17807;DHT22;9027;48.938;9.182;2022-10-31T06:47:27;11.00;99.90
17807;DHT22;9027;48.938;9.182;2022-10-31T06:49:03;11.10;99.90
17807;DHT22;9027;48.938;9.182;2022-10-31T06:50:57;11.20;99.90
17807;DHT22;9027;48.938;9.182;2022-10-31T06:52:29;11.50;99.90
17807;DHT22;9027;48.938;9.182;2022-10-31T06:54:01;12.00;99.90
17807;DHT22;9027;48.938;9.182;2022-10-31T06:55:33;12.40;99.90
17807;DHT22;9027;48.938;9.182;2022-10-31T06:57:05;13.00;99.90
17807;DHT22;9027;48.938;9.182;2022-10-31T06:58:37;13.60;99.90
17807;DHT22;9027;48.938;9.182;2022-10-31T07:00:12;14.10;99.90
17807;DHT22;9027;48.938;9.182;2022-10-31T07:01:50;14.60;99.90
17807;DHT22;9027;48.938;9.182;2022-10-31T07:03:22;15.20;99.90
17807;DHT22;9027;48.938;9.182;2022-10-31T07:04:53;15.60;99.90
17807;DHT22;9027;48.938;9.182;2022-10-31T07:06:28;16.10;99.90
17807;DHT22;9027;48.938;9.182;2022-10-31T07:08:02;16.60;99.90
17807;DHT22;9027;48.938;9.182;2022-10-31T07:09:34;16.90;99.90
17807;DHT22;9027;48.938;9.182;2022-10-31T07:11:08;17.10;99.90
17807;DHT22;9027;48.938;9.182;2022-10-31T07:12:40;17.20;99.90
17807;DHT22;9027;48.938;9.182;2022-10-31T07:14:13;17.20;99.90
17807;DHT22;9027;48.938;9.182;2022-10-31T07:15:46;17.10;99.90
17807;DHT22;9027;48.938;9.182;2022-10-31T07:17:23;17.20;99.90
17807;DHT22;9027;48.938;9.182;2022-10-31T07:18:58;17.10;99.90
17807;DHT22;9027;48.938;9.182;2022-10-31T07:20:30;17.10;99.90
17807;DHT22;9027;48.938;9.182;2022-10-31T07:22:02;17.20;99.90
17807;DHT22;9027;48.938;9.182;2022-10-31T07:23:34;17.40;99.90
17807;DHT22;9027;48.938;9.182;2022-10-31T07:25:27;17.50;99.90
17807;DHT22;9027;48.938;9.182;2022-10-31T07:27:09;17.70;99.90
17807;DHT22;9027;48.938;9.182;2022-10-31T07:28:41;17.80;99.90
17807;DHT22;9027;48.938;9.182;2022-10-31T07:30:14;17.70;99.90
17807;DHT22;9027;48.938;9.182;2022-10-31T07:31:47;17.60;99.90
17807;DHT22;9027;48.938;9.182;2022-10-31T07:33:27;17.30;99.90
17807;DHT22;9027;48.938;9.182;2022-10-31T07:35:23;17.10;99.90
17807;DHT22;9027;48.938;9.182;2022-10-31T07:37:00;17.10;99.90
17807;DHT22;9027;48.938;9.182;2022-10-31T07:38:32;17.10;99.90
17807;DHT22;9027;48.938;9.182;2022-10-31T07:40:09;17.40;99.90
17807;DHT22;9027;48.938;9.182;2022-10-31T07:41:41;17.50;99.90
17807;DHT22;9027;48.938;9.182;2022-10-31T07:43:13;17.60;99.90
17807;DHT22;9027;48.938;9.182;2022-10-31T07:45:04;17.80;99.90
17807;DHT22;9027;48.938;9.182;2022-10-31T07:47:08;17.90;99.90
17807;DHT22;9027;48.938;9.182;2022-10-31T07:49:00;17.90;99.90
17807;DHT22;9027;48.938;9.182;2022-10-31T07:50:51;18.00;99.90
17807;DHT22;9027;48.938;9.182;2022-10-31T07:52:46;18.00;99.90
17807;DHT22;9027;48.938;9.182;2022-10-31T07:54:37;18.10;99.90
17807;DHT22;9027;48.938;9.182;2022-10-31T07:56:12;18.00;99.90
17807;DHT22;9027;48.938;9.182;2022-10-31T07:57:45;18.00;99.90
17807;DHT22;9027;48.938;9.182;2022-10-31T07:59:16;18.10;99.90
17807;DHT22;9027;48.938;9.182;2022-10-31T08:00:48;18.10;99.90
17807;DHT22;9027;48.938;9.182;2022-10-31T08:02:32;18.10;99.90
17807;DHT22;9027;48.938;9.182;2022-10-31T08:04:23;18.20;99.90
17807;DHT22;9027;48.938;9.182;2022-10-31T08:06:14;18.10;99.90
17807;DHT22;9027;48.938;9.182;2022-10-31T08:08:06;18.30;99.90
17807;DHT22;9027;48.938;9.182;2022-10-31T08:09:39;18.60;99.90
17807;DHT22;9027;48.938;9.182;2022-10-31T08:11:22;18.70;99.90
17807;DHT22;9027;48.938;9.182;2022-10-31T08:12:58;18.90;99.90
17807;DHT22;9027;48.938;9.182;2022-10-31T08:14:30;19.00;99.90
17807;DHT22;9027;48.938;9.182;2022-10-31T08:16:03;18.90;99.90
17807;DHT22;9027;48.938;9.182;2022-10-31T08:17:38;18.70;99.90
17807;DHT22;9027;48.938;9.182;2022-10-31T08:19:11;18.70;99.90
17807;DHT22;9027;48.938;9.182;2022-10-31T08:20:45;18.60;99.90
17807;DHT22;9027;48.938;9.182;2022-10-31T08:22:17;18.30;99.90
17807;DHT22;9027;48.938;9.182;2022-10-31T08:23:49;17.90;99.90
17807;DHT22;9027;48.938;9.182;2022-10-31T08:25:25;17.70;99.90
17807;DHT22;9027;48.938;9.182;2022-10-31T08:26:57;17.70;99.90
17807;DHT22;9027;48.938;9.182;2022-10-31T08:28:29;17.80;99.90
17807;DHT22;9027;48.938;9.182;2022-10-31T08:30:01;17.70;99.90
17807;DHT22;9027;48.938;9.182;2022-10-31T08:31:33;17.60;99.90
17807;DHT22;9027;48.938;9.182;2022-10-31T08:33:40;17.80;99.90
17807;DHT22;9027;48.938;9.182;2022-10-31T08:35:12;18.10;99.90
17807;DHT22;9027;48.938;9.182;2022-10-31T08:37:04;18.30;99.90
17807;DHT22;9027;48.938;9.182;2022-10-31T08:38:46;18.50;99.90
17807;DHT22;9027;48.938;9.182;2022-10-31T08:40:18;18.70;99.90
17807;DHT22;9027;48.938;9.182;2022-10-31T08:41:50;18.70;99.90
17807;DHT22;9027;48.938;9.182;2022-10-31T08:43:22;18.70;99.90
17807;DHT22;9027;48.938;9.182;2022-10-31T08:44:54;18.60;99.90
17807;DHT22;9027;48.938;9.182;2022-10-31T08:46:27;18.60;99.90
17807;DHT22;9027;48.938;9.182;2022-10-31T08:47:59;18.60;99.90
17807;DHT22;9027;48.938;9.182;2022-10-31T08:49:31;18.60;99.90
17807;DHT22;9027;48.938;9.182;2022-10-31T08:51:04;18.40;99.90
17807;DHT22;9027;48.938;9.182;2022-10-31T08:52:37;18.30;99.90
17807;DHT22;9027;48.938;9.182;2022-10-31T08:54:09;18.20;99.90
17807;DHT22;9027;48.938;9.182;2022-10-31T08:56:02;18.20;99.90
17807;DHT22;9027;48.938;9.182;2022-10-31T08:57:34;18.20;99.90
17807;DHT22;9027;48.938;9.182;2022-10-31T08:59:06;18.00;99.90
17807;DHT22;9027;48.938;9.182;2022-10-31T09:00:59;17.90;99.90
17807;DHT22;9027;48.938;9.182;2022-10-31T09:02:32;17.80;99.90
17807;DHT22;9027;48.938;9.182;2022-10-31T09:04:04;17.70;99.90
17807;DHT22;9027;48.938;9.182;2022-10-31T09:05:37;17.60;99.90
17807;DHT22;9027;48.938;9.182;2022-10-31T09:07:09;17.60;99.90
17807;DHT22;9027;48.938;9.182;2022-10-31T09:08:43;17.60;99.90
17807;DHT22;9027;48.938;9.182;2022-10-31T09:10:15;17.60;99.90
17807;DHT22;9027;48.938;9.182;2022-10-31T09:11:49;17.60;99.90
17807;DHT22;9027;48.938;9.182;2022-10-31T09:13:36;17.60;99.90
17807;DHT22;9027;48.938;9.182;2022-10-31T09:15:42;17.50;99.90
17807;DHT22;9027;48.938;9.182;2022-10-31T09:17:27;17.40;99.90
17807;DHT22;9027;48.938;9.182;2022-10-31T09:19:24;17.40;99.90
17807;DHT22;9027;48.938;9.182;2022-10-31T09:20:57;17.50;99.90
17807;DHT22;9027;48.938;9.182;2022-10-31T09:22:31;17.50;99.90
17807;DHT22;9027;48.938;9.182;2022-10-31T09:24:05;17.60;99.90
17807;DHT22;9027;48.938;9.182;2022-10-31T09:25:38;17.60;99.90
17807;DHT22;9027;48.938;9.182;2022-10-31T09:27:34;17.70;99.90
17807;DHT22;9027;48.938;9.182;2022-10-31T09:29:07;17.80;99.90
17807;DHT22;9027;48.938;9.182;2022-10-31T09:30:41;17.90;99.90
17807;DHT22;9027;48.938;9.182;2022-10-31T09:32:21;18.00;99.90
17807;DHT22;9027;48.938;9.182;2022-10-31T09:33:53;17.90;99.90
17807;DHT22;9027;48.938;9.182;2022-10-31T09:35:41;17.70;99.90
17807;DHT22;9027;48.938;9.182;2022-10-31T09:37:13;17.70;99.90
17807;DHT22;9027;48.938;9.182;2022-10-31T09:38:45;17.80;99.90
17807;DHT22;9027;48.938;9.182;2022-10-31T09:40:19;17.90;99.90
17807;DHT22;9027;48.938;9.182;2022-10-31T09:42:03;18.10;99.90
17807;DHT22;9027;48.938;9.182;2022-10-31T09:43:45;18.20;99.90
17807;DHT22;9027;48.938;9.182;2022-10-31T09:45:26;18.20;99.90
17807;DHT22;9027;48.938;9.182;2022-10-31T09:47:08;18.30;99.90
17807;DHT22;9027;48.938;9.182;2022-10-31T09:48:56;18.40;99.90
17807;DHT22;9027;48.938;9.182;2022-10-31T09:50:51;18.50;99.90
17807;DHT22;9027;48.938;9.182;2022-10-31T09:52:53;18.60;99.90
17807;DHT22;9027;48.938;9.182;2022-10-31T09:54:32;18.60;99.90
17807;DHT22;9027;48.938;9.182;2022-10-31T09:56:11;18.60;99.90
17807;DHT22;9027;48.938;9.182;2022-10-31T09:57:44;18.70;99.90
17807;DHT22;9027;48.938;9.182;2022-10-31T09:59:24;18.70;99.90
17807;DHT22;9027;48.938;9.182;2022-10-31T10:00:59;18.70;99.90
17807;DHT22;9027;48.938;9.182;2022-10-31T10:02:36;18.80;99.90
17807;DHT22;9027;48.938;9.182;2022-10-31T10:04:30;18.90;99.90
17807;DHT22;9027;48.938;9.182;2022-10-31T10:06:33;19.00;99.90
17807;DHT22;9027;48.938;9.182;2022-10-31T10:08:27;19.00;99.90
17807;DHT22;9027;48.938;9.182;2022-10-31T10:10:13;19.10;99.90
17807;DHT22;9027;48.938;9.182;2022-10-31T10:12:02;19.10;99.90
17807;DHT22;9027;48.938;9.182;2022-10-31T10:13:42;19.10;99.90
17807;DHT22;9027;48.938;9.182;2022-10-31T10:17:22;19.00;99.90
17807;DHT22;9027;48.938;9.182;2022-10-31T10:19:04;19.00;99.90
17807;DHT22;9027;48.938;9.182;2022-10-31T10:20:43;19.00;99.90
17807;DHT22;9027;48.938;9.182;2022-10-31T10:22:23;18.90;99.90
17807;DHT22;9027;48.938;9.182;2022-10-31T10:24:08;18.80;99.90
17807;DHT22;9027;48.938;9.182;2022-10-31T10:25:43;18.70;99.90
17807;DHT22;9027;48.938;9.182;2022-10-31T10:27:23;18.80;99.90